Strona główna
METAR-TAF:

METAR-TAF

Lotnisko :

Concord, New Hampshire, Stany Zjednoczone

Szerokość geograficzna: 43-11-43N, Długość geograficzna: 071-30-04W, wysokość: 105 m

Aktualna obserwacja pogody

Raport powstał 1 godzina i 0 minut temu, godzina 06:51 UTC
Cisza
Temperatura -1°C
Wilgotność 80%
Ciśnienie 1012 hPa
Widzialność: 16.1 km
bezchmurnie

METAR: KCON 070651Z AUTO 00000KT 10SM CLR M01/M04 A2987 RMK AO2 SLP118 T10061039

czas: 03:51 (07:51 UTC)

Prognoza

Raport powstał 2 godziny i 11 minut temu, godzina 05:40 UTC
Prognoza ważna od 07 godzina 06 UTC do 08 godzina 06 UTC
Wiatr kt od północ
Widzialność: 10 km
Przerywane chmury na wysokości 25000 ft
Od 07 godzina 1400 UTC
Wiatr 12 kt od północny zachód
Widzialność: 10 km
Mało chmury na wysokości 25000 ft
Od 08 godzina 0000 UTC
Wiatr kt od północ
Widzialność: 10 km
Rozproszone chmury na wysokości 25000 ft

TAF: KCON 070540Z 0706/0806 00000KT P6SM BKN250 FM071400 31012KT P6SM FEW250 FM080000 00000KT P6SM SCT250

Obserwacja i prognoza pogody dla ponad 4000 lotnisk (raport METAR i TAF).

Dostępne stacje oznaczono żółtymi i czerwonymi punktami na mapie.

Najedź kursorem aby zobaczyć nazwę stacji.

Kliknij aby zobaczyć obserwacje i prognozy pogody.

Aby zmienić mapę: kliknij na zielony przycisk z czarnym krzyżykiem, aby powiększyć; na zielony przycisk z myślnikiem, aby pomniejszyć; na zielone strzałki, aby przejść do map sąsiednich.


METAR-TAF: